createdAt,value
2017-12-30T00:00:00.344Z,994.25
2017-12-30T00:01:00.379Z,994.22
2017-12-30T00:02:53.361Z,994.31
2017-12-30T00:03:53.412Z,994.34
2017-12-30T00:05:46.409Z,994.30
2017-12-30T00:06:46.443Z,994.22
2017-12-30T00:08:39.424Z,994.34
2017-12-30T00:09:39.476Z,994.29
2017-12-30T00:11:32.472Z,994.40
2017-12-30T00:12:32.506Z,994.41
2017-12-30T00:14:25.482Z,994.34
2017-12-30T00:15:25.551Z,994.37
2017-12-30T00:17:18.534Z,994.46
2017-12-30T00:18:18.570Z,994.38
2017-12-30T00:20:11.568Z,994.45
2017-12-30T00:21:11.601Z,994.47
2017-12-30T00:23:04.578Z,994.45
2017-12-30T00:24:04.632Z,994.40
2017-12-30T00:25:57.630Z,994.45
2017-12-30T00:26:57.662Z,994.50
2017-12-30T00:28:50.641Z,994.48
2017-12-30T00:29:50.696Z,994.49
2017-12-30T00:31:43.694Z,994.59
2017-12-30T00:32:43.727Z,994.64
2017-12-30T00:34:36.701Z,994.61
2017-12-30T00:35:36.758Z,994.65
2017-12-30T00:37:29.755Z,994.64
2017-12-30T00:38:29.788Z,994.58
2017-12-30T00:40:22.790Z,994.72
2017-12-30T00:41:22.820Z,994.86
2017-12-30T00:43:15.799Z,994.56
2017-12-30T00:44:15.852Z,994.64
2017-12-30T00:46:08.851Z,994.69
2017-12-30T00:47:08.883Z,994.51
2017-12-30T00:49:01.860Z,994.58
2017-12-30T00:50:01.916Z,994.45
2017-12-30T00:51:54.915Z,994.48
2017-12-30T00:52:54.947Z,994.68
2017-12-30T00:54:47.928Z,994.74
2017-12-30T00:55:47.981Z,994.68
2017-12-30T00:57:40.985Z,994.59
2017-12-30T00:58:41.020Z,994.65
2017-12-30T01:00:34.023Z,994.91
2017-12-30T01:01:34.051Z,994.92
2017-12-30T01:03:27.032Z,995.03
2017-12-30T01:04:27.086Z,994.93
2017-12-30T01:06:20.083Z,995.03
2017-12-30T01:07:20.153Z,994.96
2017-12-30T01:09:13.089Z,994.91
2017-12-30T01:10:13.145Z,994.86
2017-12-30T01:12:06.144Z,994.89
2017-12-30T01:13:06.177Z,994.85
2017-12-30T01:14:59.162Z,994.82
2017-12-30T01:15:59.210Z,994.88
2017-12-30T01:17:52.214Z,994.82
2017-12-30T01:18:52.273Z,994.83
2017-12-30T01:20:45.248Z,994.84
2017-12-30T01:21:45.281Z,994.86
2017-12-30T01:23:38.256Z,994.88
2017-12-30T01:24:38.313Z,994.88
2017-12-30T01:26:31.308Z,994.84
2017-12-30T01:27:31.345Z,994.84
2017-12-30T01:29:24.321Z,994.84
2017-12-30T01:30:24.376Z,994.80
2017-12-30T01:32:17.374Z,994.81
2017-12-30T01:33:17.407Z,994.81
2017-12-30T01:35:10.385Z,994.79
2017-12-30T01:36:10.441Z,994.67
2017-12-30T01:38:03.441Z,994.67
2017-12-30T01:39:03.477Z,994.66
2017-12-30T01:40:56.477Z,994.64
2017-12-30T01:41:56.511Z,994.69
2017-12-30T01:43:49.504Z,994.68
2017-12-30T01:44:49.548Z,994.60
2017-12-30T01:46:42.544Z,994.64
2017-12-30T01:47:42.578Z,994.70
2017-12-30T01:49:35.552Z,994.71
2017-12-30T01:50:35.616Z,994.70
2017-12-30T01:52:28.604Z,994.75
2017-12-30T01:53:28.642Z,994.69
2017-12-30T01:55:21.616Z,994.74
2017-12-30T01:56:21.669Z,994.76
2017-12-30T01:58:14.667Z,994.77
2017-12-30T01:59:14.701Z,994.76
2017-12-30T02:01:07.700Z,994.70
2017-12-30T02:02:07.732Z,994.73
2017-12-30T02:04:01.218Z,994.63
2017-12-30T02:05:01.271Z,994.63
2017-12-30T02:06:54.272Z,994.50
2017-12-30T02:07:54.307Z,994.61
2017-12-30T02:09:47.284Z,994.64
2017-12-30T02:10:47.338Z,994.60
2017-12-30T02:12:40.336Z,994.63
2017-12-30T02:13:40.370Z,994.63
2017-12-30T02:15:33.345Z,994.60
2017-12-30T02:16:33.400Z,994.61
2017-12-30T02:18:26.399Z,994.61
2017-12-30T02:19:26.437Z,994.59
2017-12-30T02:21:19.432Z,994.52
2017-12-30T02:22:19.469Z,994.53
2017-12-30T02:24:12.442Z,994.57
2017-12-30T02:25:12.499Z,994.51
2017-12-30T02:27:05.501Z,994.42
2017-12-30T02:28:05.529Z,994.48
2017-12-30T02:29:58.521Z,994.45
2017-12-30T02:30:58.577Z,994.35
2017-12-30T02:32:51.573Z,994.38
2017-12-30T02:33:51.606Z,994.37
2017-12-30T02:35:44.587Z,994.33
2017-12-30T02:36:44.641Z,994.37
2017-12-30T02:38:37.642Z,994.28
2017-12-30T02:39:37.672Z,994.29
2017-12-30T02:41:30.674Z,994.25
2017-12-30T02:42:30.703Z,994.25
2017-12-30T02:44:23.688Z,994.28
2017-12-30T02:45:23.737Z,994.28
2017-12-30T02:47:16.736Z,994.26
2017-12-30T02:48:16.771Z,994.28
2017-12-30T02:50:09.748Z,994.28
2017-12-30T02:51:09.805Z,994.36
2017-12-30T02:53:02.816Z,994.34
2017-12-30T02:54:02.854Z,994.32
2017-12-30T02:55:55.836Z,994.37
2017-12-30T02:56:55.889Z,994.34
2017-12-30T02:58:48.883Z,994.33
2017-12-30T02:59:48.922Z,994.30
2017-12-30T03:01:41.914Z,994.29
2017-12-30T03:02:41.950Z,994.25
2017-12-30T03:04:35.434Z,994.14
2017-12-30T03:05:35.488Z,994.12
2017-12-30T03:07:28.487Z,993.98
2017-12-30T03:08:28.520Z,994.04
2017-12-30T03:10:21.496Z,994.04
2017-12-30T03:11:21.551Z,994.06
2017-12-30T03:13:14.548Z,993.97
2017-12-30T03:14:14.582Z,993.92
2017-12-30T03:16:07.561Z,993.92
2017-12-30T03:17:07.620Z,993.93
2017-12-30T03:19:00.616Z,993.96
2017-12-30T03:20:00.650Z,994.00
2017-12-30T03:21:53.644Z,994.00
2017-12-30T03:22:53.680Z,993.98
2017-12-30T03:24:46.658Z,994.03
2017-12-30T03:25:46.710Z,994.08
2017-12-30T03:27:39.715Z,994.04
2017-12-30T03:28:39.751Z,994.05
2017-12-30T03:30:32.727Z,994.09
2017-12-30T03:31:32.783Z,994.07
2017-12-30T03:33:25.784Z,994.00
2017-12-30T03:34:25.820Z,993.97
2017-12-30T03:36:18.790Z,993.95
2017-12-30T03:37:18.846Z,993.94
2017-12-30T03:39:11.841Z,994.01
2017-12-30T03:40:11.876Z,993.97
2017-12-30T03:42:04.873Z,993.97
2017-12-30T03:43:04.910Z,993.99
2017-12-30T03:44:57.887Z,993.96
2017-12-30T03:45:57.935Z,993.91
2017-12-30T03:47:50.933Z,993.93
2017-12-30T03:48:51.004Z,993.96
2017-12-30T03:50:43.950Z,993.94
2017-12-30T03:51:44.003Z,993.96
2017-12-30T03:53:36.998Z,994.00
2017-12-30T03:54:37.032Z,993.97
2017-12-30T03:56:30.009Z,993.98
2017-12-30T03:57:30.065Z,994.04
2017-12-30T03:59:23.059Z,993.97
2017-12-30T04:00:23.094Z,994.00
2017-12-30T04:02:16.097Z,993.96
2017-12-30T04:03:16.132Z,993.99
2017-12-30T04:05:09.108Z,994.07
2017-12-30T04:06:09.163Z,994.08
2017-12-30T04:08:02.161Z,994.08
2017-12-30T04:09:02.196Z,994.09
2017-12-30T04:10:55.177Z,994.06
2017-12-30T04:11:55.230Z,994.07
2017-12-30T04:13:48.245Z,993.98
2017-12-30T04:14:48.280Z,993.95
2017-12-30T04:16:41.239Z,993.88
2017-12-30T04:17:41.295Z,993.86
2017-12-30T04:19:34.294Z,993.87
2017-12-30T04:20:34.325Z,993.88
2017-12-30T04:22:27.321Z,993.86
2017-12-30T04:23:27.361Z,993.92
2017-12-30T04:25:20.332Z,993.92
2017-12-30T04:26:20.384Z,993.95
2017-12-30T04:28:13.381Z,993.99
2017-12-30T04:29:13.416Z,994.01
2017-12-30T04:31:06.398Z,993.95
2017-12-30T04:32:06.451Z,993.97
2017-12-30T04:33:59.443Z,993.97
2017-12-30T04:34:59.477Z,993.97
2017-12-30T04:36:52.452Z,993.94
2017-12-30T04:37:52.508Z,993.90
2017-12-30T04:39:45.505Z,993.78
2017-12-30T04:40:45.537Z,993.80
2017-12-30T04:42:38.533Z,993.79
2017-12-30T04:43:38.567Z,993.73
2017-12-30T04:45:31.544Z,993.76
2017-12-30T04:46:31.597Z,993.78
2017-12-30T04:48:24.600Z,993.69
2017-12-30T04:49:24.635Z,993.72
2017-12-30T04:51:17.617Z,993.69
2017-12-30T04:52:17.668Z,993.76
2017-12-30T04:54:10.663Z,993.73
2017-12-30T04:55:10.697Z,993.71
2017-12-30T04:57:03.670Z,993.69
2017-12-30T04:58:03.725Z,993.65
2017-12-30T04:59:56.735Z,993.71
2017-12-30T05:00:56.764Z,993.73
2017-12-30T05:02:49.776Z,993.72
2017-12-30T05:03:49.796Z,993.69
2017-12-30T05:05:42.772Z,993.73
2017-12-30T05:06:42.829Z,993.70
2017-12-30T05:08:35.824Z,993.71
2017-12-30T05:09:35.857Z,993.69
2017-12-30T05:11:28.835Z,993.70
2017-12-30T05:12:28.888Z,993.72
2017-12-30T05:14:21.903Z,993.68
2017-12-30T05:15:21.938Z,993.65
2017-12-30T05:17:14.914Z,993.54
2017-12-30T05:18:14.968Z,993.56
2017-12-30T05:20:07.964Z,993.62
2017-12-30T05:21:08.000Z,993.65
2017-12-30T05:23:00.994Z,993.70
2017-12-30T05:24:01.031Z,993.64
2017-12-30T05:25:54.009Z,993.66
2017-12-30T05:26:54.059Z,993.63
2017-12-30T05:28:47.056Z,993.66
2017-12-30T05:29:47.093Z,993.63
2017-12-30T05:31:40.067Z,993.66
2017-12-30T05:32:40.123Z,993.68
2017-12-30T05:34:33.121Z,993.77
2017-12-30T05:35:33.153Z,993.73
2017-12-30T05:37:26.130Z,993.66
2017-12-30T05:38:26.186Z,993.55
2017-12-30T05:40:19.181Z,993.61
2017-12-30T05:41:19.216Z,993.66
2017-12-30T05:43:12.212Z,993.67
2017-12-30T05:44:12.246Z,993.65
2017-12-30T05:46:05.220Z,993.63
2017-12-30T05:47:05.275Z,993.57
2017-12-30T05:48:58.275Z,993.60
2017-12-30T05:49:58.305Z,993.57
2017-12-30T05:51:51.288Z,993.46
2017-12-30T05:52:51.337Z,993.40
2017-12-30T05:54:44.336Z,993.33
2017-12-30T05:55:44.367Z,993.34
2017-12-30T05:57:37.350Z,993.35
2017-12-30T05:58:37.399Z,993.27
2017-12-30T06:00:30.398Z,993.19
2017-12-30T06:01:30.430Z,993.09
2017-12-30T06:03:23.428Z,993.09
2017-12-30T06:04:23.465Z,993.07
2017-12-30T06:06:16.449Z,993.06
2017-12-30T06:07:16.498Z,993.00
2017-12-30T06:09:09.498Z,992.98
2017-12-30T06:10:09.530Z,993.00
2017-12-30T06:12:02.509Z,992.98
2017-12-30T06:13:02.564Z,993.03
2017-12-30T06:14:55.567Z,993.08
2017-12-30T06:15:55.597Z,993.12
2017-12-30T06:17:48.592Z,993.18
2017-12-30T06:18:48.627Z,993.18
2017-12-30T06:20:41.622Z,993.10
2017-12-30T06:21:41.657Z,993.15
2017-12-30T06:23:34.655Z,993.04
2017-12-30T06:24:34.692Z,993.06
2017-12-30T06:26:27.664Z,993.08
2017-12-30T06:27:27.719Z,993.04
2017-12-30T06:29:20.716Z,992.91
2017-12-30T06:30:20.749Z,992.94
2017-12-30T06:32:13.728Z,992.83
2017-12-30T06:33:13.786Z,992.85
2017-12-30T06:35:06.784Z,992.83
2017-12-30T06:36:06.818Z,992.81
2017-12-30T06:37:59.792Z,992.78
2017-12-30T06:38:59.846Z,992.75
2017-12-30T06:40:52.841Z,992.69
2017-12-30T06:41:52.876Z,992.54
2017-12-30T06:43:45.870Z,992.57
2017-12-30T06:44:45.905Z,992.57
2017-12-30T06:46:38.881Z,992.50
2017-12-30T06:47:38.938Z,992.57
2017-12-30T06:49:31.935Z,992.56
2017-12-30T06:50:31.968Z,992.51
2017-12-30T06:52:24.950Z,992.41
2017-12-30T06:53:25.001Z,992.40
2017-12-30T06:55:17.996Z,992.28
2017-12-30T06:56:18.032Z,992.21
2017-12-30T06:58:11.054Z,992.21
2017-12-30T06:59:11.109Z,992.18
2017-12-30T07:01:04.103Z,992.16
2017-12-30T07:02:04.137Z,992.12
2017-12-30T07:03:57.648Z,992.00
2017-12-30T07:04:57.676Z,991.97
2017-12-30T07:06:50.651Z,991.86
2017-12-30T07:07:50.705Z,991.77
2017-12-30T07:09:43.706Z,991.83
2017-12-30T07:10:43.755Z,991.92
2017-12-30T07:12:36.792Z,992.06
2017-12-30T07:13:36.786Z,992.04
2017-12-30T07:15:30.055Z,992.03
2017-12-30T07:16:29.816Z,992.07
2017-12-30T07:18:22.846Z,992.00
2017-12-30T07:19:22.854Z,991.93
2017-12-30T07:21:15.899Z,991.83
2017-12-30T07:22:15.890Z,991.75
2017-12-30T07:24:08.893Z,991.69
2017-12-30T07:25:08.927Z,991.67
2017-12-30T07:27:01.914Z,991.56
2017-12-30T07:28:01.967Z,991.45
2017-12-30T07:29:55.021Z,991.38
2017-12-30T07:30:55.057Z,991.34
2017-12-30T07:32:48.032Z,991.33
2017-12-30T07:33:48.144Z,991.39
2017-12-30T07:35:41.093Z,991.53
2017-12-30T07:36:41.139Z,991.51
2017-12-30T07:38:34.107Z,991.47
2017-12-30T07:39:34.164Z,991.40
2017-12-30T07:41:27.164Z,991.42
2017-12-30T07:42:27.197Z,991.45
2017-12-30T07:44:20.192Z,991.33
2017-12-30T07:45:20.225Z,991.25
2017-12-30T07:47:13.208Z,991.13
2017-12-30T07:48:13.263Z,991.23
2017-12-30T07:50:06.259Z,991.21
2017-12-30T07:51:06.297Z,991.14
2017-12-30T07:52:59.283Z,991.12
2017-12-30T07:53:59.338Z,991.03
2017-12-30T07:55:52.341Z,990.98
2017-12-30T07:56:52.374Z,990.93
2017-12-30T07:58:45.347Z,990.74
2017-12-30T07:59:45.408Z,990.73
2017-12-30T08:01:38.409Z,990.67
2017-12-30T08:02:38.435Z,990.65
2017-12-30T08:04:31.941Z,990.48
2017-12-30T08:05:31.971Z,990.45
2017-12-30T08:07:24.965Z,990.37
2017-12-30T08:08:25.004Z,990.35
2017-12-30T08:10:18.005Z,990.25
2017-12-30T08:11:18.038Z,990.17
2017-12-30T08:13:11.103Z,990.10
2017-12-30T08:14:11.155Z,990.05
2017-12-30T08:16:04.152Z,989.97
2017-12-30T08:17:04.184Z,989.95
2017-12-30T08:18:57.174Z,989.93
2017-12-30T08:19:57.215Z,989.83
2017-12-30T08:21:50.212Z,989.77
2017-12-30T08:22:50.451Z,989.77
2017-12-30T08:24:43.255Z,989.73
2017-12-30T08:25:43.285Z,989.70
2017-12-30T08:27:36.265Z,989.56
2017-12-30T08:28:36.313Z,989.53
2017-12-30T08:30:29.313Z,989.46
2017-12-30T08:31:29.344Z,989.39
2017-12-30T08:33:22.325Z,989.31
2017-12-30T08:34:22.381Z,989.26
2017-12-30T08:36:15.381Z,989.24
2017-12-30T08:37:15.413Z,989.23
2017-12-30T08:39:08.394Z,989.14
2017-12-30T08:40:08.443Z,989.18
2017-12-30T08:42:01.441Z,989.20
2017-12-30T08:43:01.476Z,989.14
2017-12-30T08:44:54.474Z,989.08
2017-12-30T08:45:54.510Z,989.10
2017-12-30T08:47:47.492Z,989.08
2017-12-30T08:48:47.658Z,989.05
2017-12-30T08:50:40.576Z,988.96
2017-12-30T08:51:40.585Z,988.97
2017-12-30T08:53:33.575Z,988.85
2017-12-30T08:54:33.615Z,988.80
2017-12-30T08:56:26.734Z,988.87
2017-12-30T08:57:26.654Z,988.79
2017-12-30T08:59:19.718Z,988.68
2017-12-30T09:00:19.685Z,988.69
2017-12-30T09:02:12.677Z,988.64
2017-12-30T09:03:12.757Z,988.60
2017-12-30T09:05:05.723Z,988.59
2017-12-30T09:06:05.768Z,988.59
2017-12-30T09:07:58.840Z,988.51
2017-12-30T09:08:58.790Z,988.57
2017-12-30T09:10:51.779Z,988.48
2017-12-30T09:11:51.814Z,988.50
2017-12-30T09:13:44.795Z,988.37
2017-12-30T09:14:44.844Z,988.42
2017-12-30T09:16:37.843Z,988.39
2017-12-30T09:17:37.886Z,988.43
2017-12-30T09:19:30.991Z,988.34
2017-12-30T09:20:30.909Z,988.30
2017-12-30T09:22:23.912Z,988.30
2017-12-30T09:23:23.948Z,988.29
2017-12-30T09:25:16.945Z,988.35
2017-12-30T09:26:16.984Z,988.27
2017-12-30T09:28:10.477Z,988.32
2017-12-30T09:29:10.520Z,988.28
2017-12-30T09:31:03.514Z,988.26
2017-12-30T09:32:03.547Z,988.31
2017-12-30T09:33:56.548Z,988.23
2017-12-30T09:34:56.628Z,988.26
2017-12-30T09:36:50.110Z,988.27
2017-12-30T09:37:50.142Z,988.28
2017-12-30T09:39:43.139Z,988.28
2017-12-30T09:40:43.188Z,988.31
2017-12-30T09:42:36.170Z,988.30
2017-12-30T09:43:36.204Z,988.29
2017-12-30T09:45:29.200Z,988.19
2017-12-30T09:46:29.246Z,988.12
2017-12-30T09:48:22.216Z,988.09
2017-12-30T09:49:22.268Z,988.09
2017-12-30T09:51:15.774Z,988.06
2017-12-30T09:52:15.844Z,987.99
2017-12-30T09:54:08.788Z,987.98
2017-12-30T09:55:08.837Z,987.92
2017-12-30T09:57:01.835Z,987.79
2017-12-30T09:58:01.867Z,987.77
2017-12-30T09:59:54.854Z,987.65
2017-12-30T10:00:54.899Z,987.62
2017-12-30T10:02:47.900Z,987.56
2017-12-30T10:03:47.932Z,987.50
2017-12-30T10:05:40.950Z,987.54
2017-12-30T10:06:40.962Z,987.55
2017-12-30T10:08:33.949Z,987.47
2017-12-30T10:09:33.993Z,987.44
2017-12-30T10:11:27.002Z,987.38
2017-12-30T10:12:27.033Z,987.37
2017-12-30T10:14:20.029Z,987.31
2017-12-30T10:15:20.073Z,987.29
2017-12-30T10:17:13.070Z,987.20
2017-12-30T10:18:13.092Z,987.18
2017-12-30T10:20:06.125Z,987.13
2017-12-30T10:21:06.124Z,987.07
2017-12-30T10:22:59.132Z,987.02
2017-12-30T10:23:59.152Z,987.03
2017-12-30T10:25:52.150Z,987.00
2017-12-30T10:26:52.188Z,987.00
2017-12-30T10:28:45.166Z,987.00
2017-12-30T10:29:45.217Z,986.96
2017-12-30T10:31:38.224Z,986.97
2017-12-30T10:32:38.310Z,986.89
2017-12-30T10:34:31.247Z,986.83
2017-12-30T10:35:31.283Z,986.88
2017-12-30T10:37:24.278Z,986.87
2017-12-30T10:38:24.316Z,986.81
2017-12-30T10:40:17.297Z,986.86
2017-12-30T10:41:17.352Z,986.88
2017-12-30T10:43:10.348Z,987.00
2017-12-30T10:44:10.381Z,986.97
2017-12-30T10:46:03.402Z,987.09
2017-12-30T10:47:03.417Z,987.18
2017-12-30T10:48:56.429Z,987.18
2017-12-30T10:49:56.459Z,987.12
2017-12-30T10:51:49.439Z,987.09
2017-12-30T10:52:49.474Z,986.92
2017-12-30T10:54:42.467Z,986.93
2017-12-30T10:55:42.511Z,987.03
2017-12-30T10:57:35.516Z,986.99
2017-12-30T10:58:35.561Z,987.03
2017-12-30T11:00:28.534Z,987.00
2017-12-30T11:01:28.588Z,987.01
2017-12-30T11:03:21.621Z,986.99
2017-12-30T11:04:21.625Z,987.10
2017-12-30T11:06:14.622Z,987.10
2017-12-30T11:07:14.658Z,987.11
2017-12-30T11:09:07.635Z,986.99
2017-12-30T11:10:07.691Z,987.01
2017-12-30T11:12:00.710Z,987.07
2017-12-30T11:13:00.826Z,987.05
2017-12-30T11:14:53.732Z,987.13
2017-12-30T11:15:53.775Z,987.15
2017-12-30T11:17:46.777Z,987.10
2017-12-30T11:18:46.814Z,987.12
2017-12-30T11:20:39.794Z,987.12
2017-12-30T11:21:39.845Z,987.16
2017-12-30T11:23:32.843Z,987.04
2017-12-30T11:24:32.898Z,987.05
2017-12-30T11:26:25.878Z,987.01
2017-12-30T11:27:25.912Z,986.85
2017-12-30T11:29:18.907Z,987.00
2017-12-30T11:30:18.945Z,986.96
2017-12-30T11:32:11.942Z,986.93
2017-12-30T11:33:11.980Z,987.00
2017-12-30T11:35:04.955Z,986.91
2017-12-30T11:36:05.012Z,986.85
2017-12-30T11:37:58.013Z,986.92
2017-12-30T11:38:58.049Z,986.89
2017-12-30T11:40:51.026Z,986.88
2017-12-30T11:41:51.084Z,986.86
2017-12-30T11:43:44.084Z,986.80
2017-12-30T11:44:44.119Z,986.83
2017-12-30T11:46:37.139Z,986.84
2017-12-30T11:47:37.162Z,986.90
2017-12-30T11:49:30.152Z,986.99
2017-12-30T11:50:30.197Z,986.97
2017-12-30T11:52:23.198Z,986.96
2017-12-30T11:53:23.268Z,986.92
2017-12-30T11:55:16.285Z,986.89
2017-12-30T11:56:16.307Z,986.89
2017-12-30T11:58:09.331Z,986.94
2017-12-30T11:59:09.307Z,986.96
2017-12-30T12:01:02.293Z,986.93
2017-12-30T12:02:02.343Z,986.94
2017-12-30T12:03:55.347Z,987.05
2017-12-30T12:04:55.376Z,987.07
2017-12-30T12:06:48.377Z,986.94
2017-12-30T12:07:48.414Z,986.84
2017-12-30T12:09:41.399Z,987.02
2017-12-30T12:10:41.449Z,987.06
2017-12-30T12:12:34.536Z,986.99
2017-12-30T12:13:34.499Z,986.92
2017-12-30T12:15:27.472Z,987.04
2017-12-30T12:16:27.520Z,987.08
2017-12-30T12:18:20.521Z,987.16
2017-12-30T12:19:20.554Z,987.19
2017-12-30T12:21:13.548Z,987.06
2017-12-30T12:22:13.598Z,987.12
2017-12-30T12:24:06.602Z,987.13
2017-12-30T12:25:06.637Z,987.10
2017-12-30T12:26:59.655Z,987.29
2017-12-30T12:27:59.691Z,987.27
2017-12-30T12:29:52.657Z,987.20
2017-12-30T12:30:52.708Z,987.23
2017-12-30T12:32:45.761Z,987.18
2017-12-30T12:33:45.743Z,987.13
2017-12-30T12:35:38.729Z,987.26
2017-12-30T12:36:38.781Z,987.18
2017-12-30T12:38:31.863Z,987.23
2017-12-30T12:39:31.823Z,987.16
2017-12-30T12:41:24.834Z,987.25
2017-12-30T12:42:24.887Z,987.25
2017-12-30T12:44:18.429Z,987.18
2017-12-30T12:45:18.431Z,987.12
2017-12-30T12:47:11.430Z,987.17
2017-12-30T12:48:11.466Z,987.20
2017-12-30T12:50:04.451Z,987.44
2017-12-30T12:51:04.503Z,987.56
2017-12-30T12:52:57.504Z,987.52
2017-12-30T12:53:57.549Z,987.49
2017-12-30T12:55:50.524Z,987.63
2017-12-30T12:56:50.580Z,987.67
2017-12-30T12:58:43.580Z,987.81
2017-12-30T12:59:43.672Z,987.77
2017-12-30T13:01:36.619Z,987.76
2017-12-30T13:02:36.653Z,987.72
2017-12-30T13:04:29.657Z,987.78
2017-12-30T13:05:29.691Z,987.87
2017-12-30T13:07:22.693Z,987.89
2017-12-30T13:08:22.731Z,987.84
2017-12-30T13:10:15.714Z,987.94
2017-12-30T13:11:15.765Z,987.96
2017-12-30T13:13:08.767Z,988.01
2017-12-30T13:14:08.803Z,988.02
2017-12-30T13:16:01.793Z,988.09
2017-12-30T13:17:01.854Z,988.11
2017-12-30T13:18:54.865Z,988.19
2017-12-30T13:19:54.887Z,988.08
2017-12-30T13:21:47.867Z,988.15
2017-12-30T13:22:47.952Z,988.12
2017-12-30T13:24:40.934Z,988.13
2017-12-30T13:25:40.968Z,988.24
2017-12-30T13:27:33.988Z,988.33
2017-12-30T13:28:34.024Z,988.23
2017-12-30T13:30:27.023Z,988.37
2017-12-30T13:31:27.088Z,988.26
2017-12-30T13:33:20.121Z,988.32
2017-12-30T13:34:20.154Z,988.32
2017-12-30T13:36:13.134Z,988.34
2017-12-30T13:37:13.192Z,988.54
2017-12-30T13:39:06.282Z,988.50
2017-12-30T13:40:06.233Z,988.55
2017-12-30T13:41:59.216Z,988.59
2017-12-30T13:42:59.273Z,988.72
2017-12-30T13:44:52.289Z,988.62
2017-12-30T13:45:52.314Z,988.84
2017-12-30T13:47:45.377Z,988.75
2017-12-30T13:48:45.352Z,989.02
2017-12-30T13:50:39.877Z,988.93
2017-12-30T13:51:39.897Z,988.88
2017-12-30T13:53:32.901Z,988.85
2017-12-30T13:54:32.938Z,988.86
2017-12-30T13:56:25.924Z,988.99
2017-12-30T13:57:25.982Z,988.99
2017-12-30T13:59:18.984Z,989.11
2017-12-30T14:00:19.020Z,989.12
2017-12-30T14:02:12.007Z,989.11
2017-12-30T14:03:12.060Z,989.04
2017-12-30T14:05:05.061Z,989.01
2017-12-30T14:06:05.099Z,989.11
2017-12-30T14:07:58.128Z,989.11
2017-12-30T14:08:58.139Z,988.91
2017-12-30T14:10:51.130Z,989.14
2017-12-30T14:11:51.179Z,989.07
2017-12-30T14:13:44.185Z,989.29
2017-12-30T14:14:44.219Z,989.34
2017-12-30T14:16:37.199Z,989.30
2017-12-30T14:17:37.264Z,989.39
2017-12-30T14:19:30.260Z,989.26
2017-12-30T14:20:30.320Z,989.35
2017-12-30T14:22:23.281Z,989.31
2017-12-30T14:23:23.335Z,989.33
2017-12-30T14:25:16.352Z,989.43
2017-12-30T14:26:16.382Z,989.58
2017-12-30T14:28:09.404Z,989.59
2017-12-30T14:29:09.438Z,989.56
2017-12-30T14:31:02.471Z,989.74
2017-12-30T14:32:02.474Z,989.73
2017-12-30T14:33:55.501Z,989.81
2017-12-30T14:34:55.530Z,989.78
2017-12-30T14:36:48.556Z,989.74
2017-12-30T14:37:48.573Z,989.94
2017-12-30T14:39:41.570Z,990.07
2017-12-30T14:40:41.607Z,990.07
2017-12-30T14:42:34.632Z,989.92
2017-12-30T14:43:34.649Z,990.05
2017-12-30T14:45:27.653Z,990.06
2017-12-30T14:46:27.693Z,990.13
2017-12-30T14:48:20.701Z,990.22
2017-12-30T14:49:20.734Z,990.20
2017-12-30T14:51:14.251Z,990.24
2017-12-30T14:52:14.286Z,990.27
2017-12-30T14:54:07.291Z,990.24
2017-12-30T14:55:07.328Z,990.30
2017-12-30T14:57:00.316Z,990.33
2017-12-30T14:58:00.402Z,990.31
2017-12-30T14:59:53.437Z,990.18
2017-12-30T15:00:53.447Z,990.37
2017-12-30T15:02:46.397Z,990.53
2017-12-30T15:03:46.459Z,990.49
2017-12-30T15:05:39.480Z,990.48
2017-12-30T15:06:39.541Z,990.47
2017-12-30T15:08:32.512Z,990.58
2017-12-30T15:09:32.544Z,990.64
2017-12-30T15:11:26.487Z,990.69
2017-12-30T15:12:26.464Z,990.66
2017-12-30T15:14:19.458Z,990.75
2017-12-30T15:15:19.497Z,990.79
2017-12-30T15:17:12.482Z,990.79
2017-12-30T15:18:12.545Z,990.74
2017-12-30T15:20:05.617Z,990.79
2017-12-30T15:21:05.581Z,990.89
2017-12-30T15:22:58.647Z,990.95
2017-12-30T15:23:58.621Z,990.93
2017-12-30T15:25:51.633Z,990.98
2017-12-30T15:26:51.708Z,990.83
2017-12-30T15:28:44.675Z,990.95
2017-12-30T15:29:44.735Z,990.97
2017-12-30T15:31:37.725Z,991.00
2017-12-30T15:32:37.743Z,991.09
2017-12-30T15:34:30.845Z,991.02
2017-12-30T15:35:30.791Z,991.05
2017-12-30T15:37:23.777Z,991.20
2017-12-30T15:38:23.836Z,991.25
2017-12-30T15:40:16.842Z,991.27
2017-12-30T15:41:16.876Z,991.30
2017-12-30T15:43:09.863Z,991.38
2017-12-30T15:44:09.921Z,991.37
2017-12-30T15:46:02.930Z,991.34
2017-12-30T15:47:02.971Z,991.41
2017-12-30T15:48:56.112Z,991.38
2017-12-30T15:49:56.011Z,991.54
2017-12-30T15:51:48.997Z,991.57
2017-12-30T15:52:49.125Z,991.60
2017-12-30T15:54:42.067Z,991.65
2017-12-30T15:55:42.177Z,991.63
2017-12-30T15:57:35.077Z,991.52
2017-12-30T15:58:35.133Z,991.43
2017-12-30T16:00:28.138Z,991.53
2017-12-30T16:01:28.176Z,991.51
2017-12-30T16:03:21.189Z,991.56
2017-12-30T16:04:21.217Z,991.62
2017-12-30T16:06:14.219Z,991.65
2017-12-30T16:07:14.261Z,991.60
2017-12-30T16:09:07.258Z,991.64
2017-12-30T16:10:07.324Z,991.63
2017-12-30T16:12:00.293Z,991.57
2017-12-30T16:13:00.340Z,991.66
2017-12-30T16:14:53.843Z,991.75
2017-12-30T16:15:53.883Z,991.74
2017-12-30T16:17:47.021Z,991.70
2017-12-30T16:18:46.927Z,991.84
2017-12-30T16:20:39.934Z,991.89
2017-12-30T16:21:39.968Z,991.90
2017-12-30T16:23:32.977Z,991.90
2017-12-30T16:24:33.008Z,991.82
2017-12-30T16:26:26.011Z,991.87
2017-12-30T16:27:26.049Z,991.97
2017-12-30T16:29:19.051Z,991.97
2017-12-30T16:30:19.091Z,992.01
2017-12-30T16:32:12.093Z,992.07
2017-12-30T16:33:12.132Z,992.06
2017-12-30T16:35:05.136Z,992.04
2017-12-30T16:36:05.174Z,992.07
2017-12-30T16:37:58.206Z,992.04
2017-12-30T16:38:58.214Z,992.14
2017-12-30T16:40:51.229Z,992.28
2017-12-30T16:41:51.265Z,992.25
2017-12-30T16:43:44.326Z,992.29
2017-12-30T16:44:44.337Z,992.33
2017-12-30T16:46:37.832Z,992.22
2017-12-30T16:47:37.343Z,992.40
2017-12-30T16:49:30.350Z,992.37
2017-12-30T16:50:30.384Z,992.39
2017-12-30T16:52:23.388Z,992.35
2017-12-30T16:53:23.427Z,992.37
2017-12-30T16:55:16.462Z,992.37
2017-12-30T16:56:16.465Z,992.36
2017-12-30T16:58:09.956Z,992.42
2017-12-30T16:59:10.049Z,992.44
2017-12-30T17:01:03.051Z,992.58
2017-12-30T17:02:03.052Z,992.62
2017-12-30T17:03:56.037Z,992.60
2017-12-30T17:04:56.096Z,992.72
2017-12-30T17:06:49.252Z,992.72
2017-12-30T17:07:49.139Z,992.67
2017-12-30T17:09:42.257Z,992.82
2017-12-30T17:10:42.188Z,992.82
2017-12-30T17:12:35.201Z,992.96
2017-12-30T17:13:35.240Z,992.88
2017-12-30T17:15:28.243Z,993.08
2017-12-30T17:16:28.278Z,993.02
2017-12-30T17:18:21.327Z,992.95
2017-12-30T17:19:21.317Z,992.87
2017-12-30T17:21:14.380Z,993.02
2017-12-30T17:22:14.357Z,993.12
2017-12-30T17:24:07.353Z,993.17
2017-12-30T17:25:07.402Z,993.21
2017-12-30T17:27:00.407Z,993.16
2017-12-30T17:28:00.473Z,993.19
2017-12-30T17:29:53.584Z,993.16
2017-12-30T17:30:53.491Z,993.12
2017-12-30T17:32:46.562Z,993.07
2017-12-30T17:33:46.533Z,993.18
2017-12-30T17:35:39.769Z,993.10
2017-12-30T17:36:39.589Z,993.15
2017-12-30T17:38:32.563Z,993.20
2017-12-30T17:39:32.779Z,993.15
2017-12-30T17:41:25.713Z,993.25
2017-12-30T17:42:25.687Z,993.23
2017-12-30T17:44:18.671Z,993.21
2017-12-30T17:45:18.705Z,993.21
2017-12-30T17:47:11.707Z,993.28
2017-12-30T17:48:11.769Z,993.24
2017-12-30T17:50:04.775Z,993.03
2017-12-30T17:51:04.828Z,993.02
2017-12-30T17:52:57.784Z,993.20
2017-12-30T17:53:57.859Z,993.25
2017-12-30T17:55:50.857Z,993.17
2017-12-30T17:56:50.911Z,993.21
2017-12-30T17:58:45.479Z,993.28